createdAt,value
2023-05-15T00:01:02.342Z,12.80
2023-05-15T00:03:29.874Z,12.80
2023-05-15T00:05:58.149Z,12.80
2023-05-15T00:08:26.097Z,12.80
2023-05-15T00:11:01.320Z,12.70
2023-05-15T00:13:29.791Z,12.70
2023-05-15T00:15:57.664Z,12.70
2023-05-15T00:18:25.016Z,12.70
2023-05-15T00:20:53.714Z,12.70
2023-05-15T00:23:21.108Z,12.70
2023-05-15T00:25:48.419Z,12.70
2023-05-15T00:28:15.881Z,12.70
2023-05-15T00:30:43.155Z,12.70
2023-05-15T00:33:10.769Z,12.70
2023-05-15T00:35:38.447Z,12.70
2023-05-15T00:38:06.086Z,12.70
2023-05-15T00:40:35.529Z,12.70
2023-05-15T00:43:03.293Z,12.70
2023-05-15T00:45:31.370Z,12.70
2023-05-15T00:48:01.113Z,12.70
2023-05-15T00:50:29.643Z,12.70
2023-05-15T00:52:57.637Z,12.70
2023-05-15T00:55:27.399Z,12.70
2023-05-15T00:57:56.571Z,12.70
2023-05-15T01:00:24.476Z,12.70
2023-05-15T01:02:52.402Z,12.70
2023-05-15T01:05:19.959Z,12.70
2023-05-15T01:07:58.475Z,12.70
2023-05-15T01:10:26.201Z,12.70
2023-05-15T01:12:55.716Z,12.70
2023-05-15T01:15:24.277Z,12.70
2023-05-15T01:17:52.671Z,12.70
2023-05-15T01:20:22.646Z,12.70
2023-05-15T01:23:16.523Z,12.80
2023-05-15T01:26:16.520Z,12.70
2023-05-15T01:28:49.496Z,12.70
2023-05-15T01:31:22.895Z,12.70
2023-05-15T01:33:59.708Z,12.70
2023-05-15T01:36:46.580Z,12.70
2023-05-15T01:39:17.907Z,12.60
2023-05-15T01:42:01.485Z,12.60
2023-05-15T01:44:31.771Z,12.60
2023-05-15T01:47:01.669Z,12.60
2023-05-15T01:49:29.742Z,12.60
2023-05-15T01:52:23.326Z,12.60
2023-05-15T01:54:51.529Z,12.60
2023-05-15T01:57:20.303Z,12.60
2023-05-15T01:59:48.379Z,12.60
2023-05-15T02:02:16.225Z,12.60
2023-05-15T02:04:45.229Z,12.60
2023-05-15T02:07:14.348Z,12.60
2023-05-15T02:09:42.792Z,12.60
2023-05-15T02:12:11.209Z,12.60
2023-05-15T02:14:41.364Z,12.60
2023-05-15T02:17:08.802Z,12.60
2023-05-15T02:19:36.102Z,12.60
2023-05-15T02:22:03.977Z,12.50
2023-05-15T02:24:31.292Z,12.50
2023-05-15T02:27:17.850Z,12.50
2023-05-15T02:30:06.847Z,12.50
2023-05-15T02:32:55.803Z,12.50
2023-05-15T02:35:42.638Z,12.50
2023-05-15T02:38:17.688Z,12.50
2023-05-15T02:40:48.171Z,12.50
2023-05-15T02:43:18.683Z,12.50
2023-05-15T02:45:49.758Z,12.50
2023-05-15T02:48:18.050Z,12.50
2023-05-15T02:50:45.407Z,12.50
2023-05-15T02:53:14.795Z,12.50
2023-05-15T02:55:42.208Z,12.50
2023-05-15T02:58:10.099Z,12.50
2023-05-15T03:00:37.313Z,12.50
2023-05-15T03:03:04.956Z,12.50
2023-05-15T03:05:32.483Z,12.50
2023-05-15T03:08:01.019Z,12.50
2023-05-15T03:10:28.321Z,12.50
2023-05-15T03:12:59.635Z,12.50
2023-05-15T03:15:27.250Z,12.50
2023-05-15T03:17:54.737Z,12.50
2023-05-15T03:20:22.003Z,12.50
2023-05-15T03:22:49.442Z,12.50
2023-05-15T03:25:16.838Z,12.50
2023-05-15T03:27:44.151Z,12.50
2023-05-15T03:30:11.691Z,12.50
2023-05-15T03:32:39.179Z,12.50
2023-05-15T03:35:06.968Z,12.50
2023-05-15T03:37:34.589Z,12.50
2023-05-15T03:40:01.926Z,12.60
2023-05-15T03:42:29.565Z,12.60
2023-05-15T03:44:56.972Z,12.50
2023-05-15T03:47:24.505Z,12.60
2023-05-15T03:49:51.786Z,12.50
2023-05-15T03:52:19.353Z,12.50
2023-05-15T03:54:46.760Z,12.60
2023-05-15T03:57:14.117Z,12.60
2023-05-15T03:59:41.729Z,12.60
2023-05-15T04:02:10.586Z,12.60
2023-05-15T04:04:38.960Z,12.60
2023-05-15T04:07:06.488Z,12.60
2023-05-15T04:09:33.795Z,12.60
2023-05-15T04:12:01.054Z,12.60
2023-05-15T04:14:28.460Z,12.60
2023-05-15T04:16:56.034Z,12.60
2023-05-15T04:19:23.284Z,12.60
2023-05-15T04:21:50.524Z,12.70
2023-05-15T04:24:17.785Z,12.70
2023-05-15T04:26:45.160Z,12.70
2023-05-15T04:29:12.514Z,12.70
2023-05-15T04:31:40.225Z,12.70
2023-05-15T04:34:07.466Z,12.70
2023-05-15T04:36:35.232Z,12.70
2023-05-15T04:39:02.551Z,12.70
2023-05-15T04:41:30.619Z,12.80
2023-05-15T04:43:58.000Z,12.80
2023-05-15T04:46:25.633Z,12.80
2023-05-15T04:48:52.992Z,12.80
2023-05-15T04:51:20.258Z,12.90
2023-05-15T04:53:47.515Z,12.90
2023-05-15T04:56:14.752Z,13.00
2023-05-15T04:58:42.005Z,13.10
2023-05-15T05:01:09.614Z,13.10
2023-05-15T05:03:37.261Z,13.10
2023-05-15T05:06:07.802Z,13.20
2023-05-15T05:08:35.193Z,13.20
2023-05-15T05:11:02.551Z,13.30
2023-05-15T05:13:35.532Z,13.30
2023-05-15T05:16:03.146Z,13.30
2023-05-15T05:18:31.413Z,13.30
2023-05-15T05:21:02.763Z,13.30
2023-05-15T05:23:30.798Z,13.30
2023-05-15T05:25:58.210Z,13.30
2023-05-15T05:28:26.144Z,13.40
2023-05-15T05:30:53.460Z,13.40
2023-05-15T05:33:20.764Z,13.40
2023-05-15T05:35:48.198Z,13.50
2023-05-15T05:38:16.907Z,13.50
2023-05-15T05:40:46.298Z,13.50
2023-05-15T05:43:13.982Z,13.50
2023-05-15T05:45:41.397Z,13.50
2023-05-15T05:48:08.823Z,13.50
2023-05-15T05:50:36.538Z,13.50
2023-05-15T05:53:03.749Z,13.50
2023-05-15T05:55:31.115Z,13.50
2023-05-15T05:57:58.647Z,13.50
2023-05-15T06:00:26.228Z,13.60
2023-05-15T06:02:59.686Z,13.70
2023-05-15T06:05:27.850Z,13.60
2023-05-15T06:07:55.940Z,13.60
2023-05-15T06:10:26.025Z,13.50
2023-05-15T06:12:53.614Z,13.40
2023-05-15T06:15:21.018Z,13.50
2023-05-15T06:17:48.549Z,13.50
2023-05-15T06:20:16.207Z,13.50
2023-05-15T06:22:43.654Z,13.40
2023-05-15T06:25:15.027Z,13.50
2023-05-15T06:27:42.731Z,13.50
2023-05-15T06:30:10.982Z,13.60
2023-05-15T06:32:38.458Z,13.60
2023-05-15T06:35:06.294Z,13.60
2023-05-15T06:37:33.556Z,13.60
2023-05-15T06:40:01.480Z,13.60
2023-05-15T06:42:28.752Z,13.70
2023-05-15T06:44:56.164Z,13.70
2023-05-15T06:47:23.705Z,13.70
2023-05-15T06:49:51.459Z,13.70
2023-05-15T06:52:19.043Z,13.70
2023-05-15T06:54:47.364Z,13.60
2023-05-15T06:57:14.629Z,13.60
2023-05-15T06:59:41.856Z,13.60
2023-05-15T07:02:09.430Z,13.70
2023-05-15T07:04:39.506Z,13.70
2023-05-15T07:07:07.394Z,13.80
2023-05-15T07:09:35.776Z,13.90
2023-05-15T07:12:03.972Z,13.90
2023-05-15T07:14:31.278Z,14.00
2023-05-15T07:16:58.730Z,14.00
2023-05-15T07:19:26.435Z,13.90
2023-05-15T07:21:53.779Z,14.00
2023-05-15T07:24:21.081Z,14.10
2023-05-15T07:26:58.283Z,14.10
2023-05-15T07:29:26.791Z,14.20
2023-05-15T07:31:54.350Z,14.30
2023-05-15T07:34:21.794Z,14.30
2023-05-15T07:36:49.195Z,14.30
2023-05-15T07:39:16.680Z,14.40
2023-05-15T07:41:43.992Z,14.40
2023-05-15T07:44:11.421Z,14.40
2023-05-15T07:46:39.264Z,14.60
2023-05-15T07:49:06.665Z,15.00
2023-05-15T07:51:33.923Z,15.40
2023-05-15T07:54:01.708Z,16.00
2023-05-15T07:56:28.954Z,16.10
2023-05-15T07:58:56.809Z,16.20
2023-05-15T08:01:24.134Z,16.20
2023-05-15T08:03:51.701Z,16.30
2023-05-15T08:06:19.158Z,16.20
2023-05-15T08:08:46.622Z,16.10
2023-05-15T08:11:13.986Z,16.10
2023-05-15T08:13:41.198Z,16.10
2023-05-15T08:16:08.976Z,16.10
2023-05-15T08:18:36.455Z,15.90
2023-05-15T08:21:04.757Z,15.80
2023-05-15T08:23:32.159Z,15.90
2023-05-15T08:25:59.633Z,15.80
2023-05-15T08:28:26.879Z,15.80
2023-05-15T08:30:55.031Z,15.80
2023-05-15T08:33:22.358Z,15.80
2023-05-15T08:35:49.822Z,15.70
2023-05-15T08:38:17.182Z,15.60
2023-05-15T08:40:47.691Z,15.40
2023-05-15T08:43:18.687Z,15.20
2023-05-15T08:45:46.323Z,15.10
2023-05-15T08:48:21.608Z,15.00
2023-05-15T08:50:49.936Z,15.10
2023-05-15T08:53:17.934Z,15.20
2023-05-15T08:55:45.941Z,15.30
2023-05-15T08:58:14.499Z,15.40
2023-05-15T09:00:41.997Z,15.50
2023-05-15T09:03:15.955Z,15.60
2023-05-15T09:05:44.093Z,15.60
2023-05-15T09:08:12.657Z,15.70
2023-05-15T09:10:41.434Z,15.90
2023-05-15T09:13:10.165Z,16.10
2023-05-15T09:15:38.786Z,16.30
2023-05-15T09:18:08.274Z,16.30
2023-05-15T09:20:38.465Z,16.30
2023-05-15T09:23:22.104Z,16.20
2023-05-15T09:25:53.740Z,16.20
2023-05-15T09:28:33.361Z,16.30
2023-05-15T09:31:02.676Z,16.50
2023-05-15T09:33:39.449Z,16.60
2023-05-15T09:36:08.315Z,16.70
2023-05-15T09:38:43.918Z,16.70
2023-05-15T09:41:11.783Z,16.70
2023-05-15T09:43:40.234Z,16.70
2023-05-15T09:46:15.789Z,16.70
2023-05-15T09:48:43.795Z,16.80
2023-05-15T09:51:19.352Z,17.00
2023-05-15T09:53:51.948Z,17.20
2023-05-15T09:56:19.461Z,17.30
2023-05-15T09:58:57.866Z,17.60
2023-05-15T10:01:26.669Z,18.00
2023-05-15T10:04:05.223Z,17.90
2023-05-15T10:06:37.748Z,17.60
2023-05-15T10:09:06.328Z,17.30
2023-05-15T10:11:38.779Z,17.30
2023-05-15T10:14:08.011Z,17.30
2023-05-15T10:16:37.039Z,17.60
2023-05-15T10:19:06.680Z,18.10
2023-05-15T10:21:35.878Z,18.30
2023-05-15T10:24:05.280Z,18.60
2023-05-15T10:26:39.747Z,18.60
2023-05-15T10:29:11.774Z,18.40
2023-05-15T10:31:40.507Z,18.30
2023-05-15T10:34:09.924Z,18.30
2023-05-15T10:36:39.878Z,18.20
2023-05-15T10:39:08.707Z,17.90
2023-05-15T10:41:41.059Z,17.90
2023-05-15T10:44:08.907Z,17.90
2023-05-15T10:46:37.740Z,18.00
2023-05-15T10:49:05.637Z,18.30
2023-05-15T10:51:33.837Z,18.60
2023-05-15T10:54:03.943Z,18.40
2023-05-15T10:56:37.699Z,18.00
2023-05-15T10:59:09.878Z,17.70
2023-05-15T11:01:41.310Z,17.40
2023-05-15T11:04:16.670Z,17.10
2023-05-15T11:06:48.719Z,17.00
2023-05-15T11:09:28.193Z,16.90
2023-05-15T11:12:01.046Z,16.80
2023-05-15T11:14:32.046Z,16.70
2023-05-15T11:17:01.260Z,16.60
2023-05-15T11:19:58.755Z,16.50
2023-05-15T11:22:36.369Z,16.40
2023-05-15T11:25:12.537Z,16.40
2023-05-15T11:27:42.059Z,16.30
2023-05-15T11:30:18.280Z,16.30
2023-05-15T11:32:49.325Z,16.40
2023-05-15T11:35:33.587Z,16.50
2023-05-15T11:38:05.025Z,16.60
2023-05-15T11:40:43.938Z,16.70
2023-05-15T11:43:28.494Z,16.80
2023-05-15T11:46:10.041Z,16.90
2023-05-15T11:48:46.561Z,16.90
2023-05-15T11:51:32.963Z,16.70
2023-05-15T11:54:02.899Z,16.70
2023-05-15T11:56:30.786Z,16.60
2023-05-15T11:59:00.149Z,16.50
2023-05-15T12:01:28.627Z,16.70
2023-05-15T12:03:56.277Z,16.80
2023-05-15T12:06:23.874Z,16.80
2023-05-15T12:08:53.470Z,16.70
2023-05-15T12:11:24.951Z,16.70
2023-05-15T12:13:56.415Z,16.60
2023-05-15T12:16:27.902Z,16.50
2023-05-15T12:18:59.150Z,16.50
2023-05-15T12:21:29.238Z,16.50
2023-05-15T12:24:07.064Z,16.50
2023-05-15T12:26:36.440Z,16.40
2023-05-15T12:29:04.755Z,16.30
2023-05-15T12:31:35.215Z,16.30
2023-05-15T12:34:02.864Z,16.10
2023-05-15T12:36:31.387Z,15.90
2023-05-15T12:39:05.397Z,15.70
2023-05-15T12:41:32.940Z,15.40
2023-05-15T12:44:00.385Z,15.30
2023-05-15T12:46:32.069Z,15.10
2023-05-15T12:49:00.070Z,14.90
2023-05-15T12:51:30.219Z,15.00
2023-05-15T12:53:59.283Z,14.90
2023-05-15T12:56:26.849Z,14.90
2023-05-15T12:58:56.278Z,14.80
2023-05-15T13:01:23.892Z,14.60
2023-05-15T13:03:51.836Z,14.40
2023-05-15T13:06:19.902Z,14.20
2023-05-15T13:08:48.388Z,14.10
2023-05-15T13:11:17.046Z,14.00
2023-05-15T13:13:46.493Z,13.90
2023-05-15T13:16:21.681Z,13.80
2023-05-15T13:18:49.186Z,13.70
2023-05-15T13:21:16.621Z,13.70
2023-05-15T13:23:44.053Z,13.70
2023-05-15T13:26:14.282Z,13.90
2023-05-15T13:28:41.640Z,14.30
2023-05-15T13:31:09.145Z,14.80
2023-05-15T13:33:36.870Z,15.30
2023-05-15T13:36:04.361Z,15.50
2023-05-15T13:38:31.618Z,15.60
2023-05-15T13:40:59.224Z,15.70
2023-05-15T13:43:26.963Z,15.70
2023-05-15T13:45:54.659Z,15.60
2023-05-15T13:48:22.297Z,15.60
2023-05-15T13:50:49.683Z,15.60
2023-05-15T13:53:17.273Z,15.50
2023-05-15T13:55:46.172Z,15.40
2023-05-15T13:58:13.948Z,15.20
2023-05-15T14:00:47.841Z,15.20
2023-05-15T14:03:15.577Z,15.20
2023-05-15T14:05:43.094Z,15.20
2023-05-15T14:08:11.335Z,15.20
2023-05-15T14:10:38.822Z,15.30
2023-05-15T14:13:06.415Z,15.30
2023-05-15T14:15:34.151Z,15.30
2023-05-15T14:18:01.647Z,15.20
2023-05-15T14:20:29.030Z,15.20
2023-05-15T14:22:56.552Z,15.20
2023-05-15T14:25:24.599Z,15.20
2023-05-15T14:27:52.040Z,15.20
2023-05-15T14:30:19.633Z,15.10
2023-05-15T14:32:47.408Z,15.10
2023-05-15T14:35:14.890Z,15.00
2023-05-15T14:37:44.020Z,14.90
2023-05-15T14:40:12.290Z,15.00
2023-05-15T14:42:41.062Z,15.00
2023-05-15T14:45:12.402Z,15.00
2023-05-15T14:47:40.308Z,15.00
2023-05-15T14:50:08.687Z,15.10
2023-05-15T14:52:36.808Z,15.20
2023-05-15T14:55:09.325Z,15.40
2023-05-15T14:57:40.837Z,15.50
2023-05-15T15:00:09.932Z,15.50
2023-05-15T15:02:37.892Z,15.60
2023-05-15T15:05:06.264Z,15.60
2023-05-15T15:08:07.417Z,15.60
2023-05-15T15:10:36.494Z,15.50
2023-05-15T15:13:04.585Z,15.60
2023-05-15T15:15:33.367Z,15.70
2023-05-15T15:18:01.522Z,15.70
2023-05-15T15:20:29.490Z,15.80
2023-05-15T15:22:57.032Z,15.80
2023-05-15T15:25:27.026Z,15.50
2023-05-15T15:27:55.592Z,15.40
2023-05-15T15:30:23.609Z,15.50
2023-05-15T15:32:51.499Z,15.60
2023-05-15T15:35:24.311Z,15.50
2023-05-15T15:37:53.883Z,15.40
2023-05-15T15:40:25.242Z,15.10
2023-05-15T15:42:57.481Z,14.90
2023-05-15T15:45:24.890Z,14.70
2023-05-15T15:47:55.660Z,14.60
2023-05-15T15:50:23.519Z,14.50
2023-05-15T15:52:51.487Z,14.40
2023-05-15T15:55:20.212Z,14.20
2023-05-15T15:57:47.684Z,14.20
2023-05-15T16:00:16.613Z,14.20
2023-05-15T16:02:44.366Z,14.20
2023-05-15T16:05:11.943Z,14.20
2023-05-15T16:07:40.199Z,14.20
2023-05-15T16:10:13.139Z,14.20
2023-05-15T16:12:46.029Z,14.30
2023-05-15T16:17:49.298Z,14.20
2023-05-15T16:20:16.896Z,14.20
2023-05-15T16:22:44.650Z,14.20
2023-05-15T16:25:14.661Z,14.20
2023-05-15T16:27:48.138Z,14.20
2023-05-15T16:30:15.762Z,14.40
2023-05-15T16:32:46.480Z,14.60
2023-05-15T16:35:13.957Z,14.80
2023-05-15T16:37:41.352Z,14.90
2023-05-15T16:40:10.993Z,15.10
2023-05-15T16:42:39.236Z,15.30
2023-05-15T16:45:07.844Z,15.30
2023-05-15T16:47:40.613Z,15.20
2023-05-15T16:50:09.140Z,15.20
2023-05-15T16:52:39.155Z,15.10
2023-05-15T16:55:07.362Z,15.00
2023-05-15T16:57:34.581Z,14.90
2023-05-15T17:00:02.495Z,14.70
2023-05-15T17:02:30.235Z,14.60
2023-05-15T17:04:58.539Z,14.50
2023-05-15T17:07:26.456Z,14.40
2023-05-15T17:09:55.183Z,14.30
2023-05-15T17:12:24.057Z,14.30
2023-05-15T17:14:51.688Z,14.30
2023-05-15T17:17:19.958Z,14.30
2023-05-15T17:19:47.472Z,14.30
2023-05-15T17:22:15.361Z,14.30
2023-05-15T17:27:16.705Z,14.20
2023-05-15T17:29:44.879Z,14.10
2023-05-15T17:32:12.852Z,14.10
2023-05-15T17:34:40.796Z,14.10
2023-05-15T17:37:09.842Z,14.10
2023-05-15T17:39:37.785Z,14.10
2023-05-15T17:42:05.874Z,14.10
2023-05-15T17:44:33.889Z,14.10
2023-05-15T17:47:01.984Z,14.00
2023-05-15T17:49:29.492Z,13.90
2023-05-15T17:51:57.132Z,13.90
2023-05-15T17:54:24.582Z,13.70
2023-05-15T17:56:52.082Z,13.70
2023-05-15T17:59:19.565Z,13.60
2023-05-15T18:01:47.391Z,13.60
2023-05-15T18:04:15.086Z,13.50
2023-05-15T18:06:43.189Z,13.40
2023-05-15T18:09:11.054Z,13.30
2023-05-15T18:11:38.338Z,13.30
2023-05-15T18:14:07.780Z,13.20
2023-05-15T18:16:35.156Z,13.20
2023-05-15T18:19:03.438Z,13.10
2023-05-15T18:21:31.048Z,13.10
2023-05-15T18:23:58.710Z,13.10
2023-05-15T18:26:27.043Z,12.90
2023-05-15T18:28:54.694Z,12.90
2023-05-15T18:31:22.651Z,12.90
2023-05-15T18:33:49.945Z,12.80
2023-05-15T18:36:17.522Z,12.80
2023-05-15T18:38:45.858Z,12.70
2023-05-15T18:41:13.972Z,12.70
2023-05-15T18:43:42.648Z,12.60
2023-05-15T18:46:10.070Z,12.60
2023-05-15T18:48:37.560Z,12.60
2023-05-15T18:51:05.631Z,12.60
2023-05-15T18:53:32.994Z,12.60
2023-05-15T18:56:00.536Z,12.50
2023-05-15T18:58:27.784Z,12.50
2023-05-15T19:00:56.795Z,12.50
2023-05-15T19:03:26.075Z,12.40
2023-05-15T19:05:53.443Z,12.30
2023-05-15T19:08:20.933Z,12.30
2023-05-15T19:10:51.184Z,12.20
2023-05-15T19:13:20.278Z,12.00
2023-05-15T19:15:54.933Z,12.00
2023-05-15T19:18:23.301Z,12.00
2023-05-15T19:20:54.604Z,11.90
2023-05-15T19:23:25.141Z,12.00
2023-05-15T19:25:55.800Z,12.00
2023-05-15T19:28:29.720Z,12.00
2023-05-15T19:30:57.112Z,12.00
2023-05-15T19:33:25.008Z,12.00
2023-05-15T19:35:53.166Z,12.00
2023-05-15T19:38:20.595Z,12.10
2023-05-15T19:40:49.087Z,12.10
2023-05-15T19:43:16.418Z,12.10
2023-05-15T19:45:44.405Z,12.10
2023-05-15T19:48:12.128Z,12.10
2023-05-15T19:50:40.309Z,12.10
2023-05-15T19:53:07.761Z,12.10
2023-05-15T19:55:35.235Z,12.10
2023-05-15T19:58:02.984Z,12.10
2023-05-15T20:00:30.713Z,12.10
2023-05-15T20:02:58.385Z,12.20
2023-05-15T20:05:25.795Z,12.10
2023-05-15T20:07:53.429Z,12.00
2023-05-15T20:10:21.181Z,12.10
2023-05-15T20:12:48.595Z,12.00
2023-05-15T20:15:16.586Z,12.00
2023-05-15T20:17:44.578Z,12.00
2023-05-15T20:20:12.555Z,12.00
2023-05-15T20:22:42.166Z,11.90
2023-05-15T20:25:10.118Z,11.90
2023-05-15T20:27:37.596Z,11.80
2023-05-15T20:30:06.612Z,11.80
2023-05-15T20:32:34.244Z,11.70
2023-05-15T20:35:01.887Z,11.60
2023-05-15T20:37:30.651Z,11.50
2023-05-15T20:39:58.676Z,11.30
2023-05-15T20:42:27.968Z,11.20
2023-05-15T20:44:55.302Z,11.10
2023-05-15T20:47:23.346Z,10.90
2023-05-15T20:49:50.833Z,10.90
2023-05-15T20:52:18.268Z,10.80
2023-05-15T20:54:45.652Z,10.80
2023-05-15T20:57:12.895Z,10.70
2023-05-15T20:59:40.221Z,10.70
2023-05-15T21:02:07.763Z,10.70
2023-05-15T21:04:36.584Z,10.70
2023-05-15T21:07:04.789Z,10.70
2023-05-15T21:09:32.051Z,10.70
2023-05-15T21:12:00.257Z,10.70
2023-05-15T21:14:27.973Z,10.60
2023-05-15T21:16:58.966Z,10.60
2023-05-15T21:19:26.393Z,10.50
2023-05-15T21:21:54.154Z,10.50
2023-05-15T21:24:21.699Z,10.50
2023-05-15T21:26:49.142Z,10.50
2023-05-15T21:29:18.407Z,10.40
2023-05-15T21:31:45.826Z,10.30
2023-05-15T21:34:13.181Z,10.30
2023-05-15T21:36:40.681Z,10.20
2023-05-15T21:39:09.769Z,10.20
2023-05-15T21:41:37.468Z,10.20
2023-05-15T21:44:04.809Z,10.10
2023-05-15T21:46:32.357Z,10.10
2023-05-15T21:49:02.932Z,10.10
2023-05-15T21:51:34.796Z,10.00
2023-05-15T21:54:02.188Z,10.00
2023-05-15T21:56:29.583Z,10.10
2023-05-15T21:58:57.428Z,10.10
2023-05-15T22:01:24.917Z,10.10
2023-05-15T22:03:52.363Z,10.10
2023-05-15T22:06:19.719Z,10.10
2023-05-15T22:08:47.320Z,10.10
2023-05-15T22:11:15.649Z,10.00
2023-05-15T22:13:42.892Z,10.00
2023-05-15T22:16:10.333Z,10.00
2023-05-15T22:18:38.353Z,9.90
2023-05-15T22:21:06.101Z,9.90
2023-05-15T22:23:33.499Z,9.80
2023-05-15T22:26:01.319Z,9.80
2023-05-15T22:28:28.679Z,9.70
2023-05-15T22:30:56.069Z,9.70
2023-05-15T22:33:24.634Z,9.60
2023-05-15T22:35:53.053Z,9.70
2023-05-15T22:38:21.367Z,9.70
2023-05-15T22:40:52.697Z,9.70
2023-05-15T22:43:22.707Z,9.70
2023-05-15T22:45:50.246Z,9.80
2023-05-15T22:48:17.559Z,9.70
2023-05-15T22:50:44.982Z,9.70
2023-05-15T22:53:12.567Z,9.60
2023-05-15T22:55:39.820Z,9.60
2023-05-15T22:58:07.262Z,9.60
2023-05-15T23:00:34.626Z,9.60
2023-05-15T23:03:01.959Z,9.60
2023-05-15T23:05:29.354Z,9.60
2023-05-15T23:07:56.672Z,9.50
2023-05-15T23:10:24.034Z,9.50
2023-05-15T23:12:51.537Z,9.40
2023-05-15T23:15:18.851Z,9.40
2023-05-15T23:17:46.396Z,9.40
2023-05-15T23:20:14.265Z,9.40
2023-05-15T23:22:41.706Z,9.40
2023-05-15T23:25:09.912Z,9.40
2023-05-15T23:27:37.224Z,9.30
2023-05-15T23:30:05.996Z,9.30
2023-05-15T23:32:33.432Z,9.30
2023-05-15T23:35:01.073Z,9.20
2023-05-15T23:37:28.954Z,9.20
2023-05-15T23:39:59.384Z,9.20
2023-05-15T23:42:27.066Z,9.30
2023-05-15T23:44:54.378Z,9.30
2023-05-15T23:47:21.738Z,9.20
2023-05-15T23:49:49.153Z,9.20
2023-05-15T23:52:16.435Z,9.30
2023-05-15T23:54:43.857Z,9.30
2023-05-15T23:57:11.272Z,9.30
2023-05-15T23:59:38.733Z,9.20
